Time;durP1;ratioP1;P1;durP2;ratioP2;P2;SDS_P1;SDS_P2;PMS_P1;PMS_P2;Temp;Humidity;BMP_temperature;BMP_pressure;BME280_temperature;BME280_humidity;BME280_pressure;Samples;Min_cycle;Max_cycle;Signal;HPM_P1;HPM_P2
2023/04/01 00:01:13;;;;;;;1.35;0.52;;;12.10;99.90;;;;;;5034432;28;20531;-37
2023/04/01 00:03:39;;;;;;;4.57;0.70;;;12.10;99.90;;;;;;5033674;28;20029;-39
2023/04/01 00:06:05;;;;;;;1.48;0.50;;;12.10;99.90;;;;;;5033701;28;20031;-37
2023/04/01 00:08:31;;;;;;;1.52;0.40;;;12.10;99.90;;;;;;5034906;28;20022;-36
2023/04/01 00:10:57;;;;;;;1.83;0.60;;;12.10;99.90;;;;;;5034037;28;20028;-39
2023/04/01 00:13:25;;;;;;;3.65;0.68;;;12.10;99.90;;;;;;5034725;28;20026;-36
2023/04/01 00:15:51;;;;;;;2.60;0.55;;;12.10;99.90;;;;;;5032645;28;20480;-37
2023/04/01 00:18:16;;;;;;;1.83;0.60;;;12.10;99.90;;;;;;5034473;28;20108;-39
2023/04/01 00:20:47;;;;;;;5.15;1.08;;;12.10;99.90;;;;;;5034588;28;20034;-39
2023/04/01 00:23:13;;;;;;;3.22;0.80;;;12.00;99.90;;;;;;5034341;28;20018;-38
2023/04/01 00:25:39;;;;;;;0.98;0.45;;;12.00;99.90;;;;;;5034211;28;20096;-38
2023/04/01 00:28:05;;;;;;;2.05;0.55;;;12.10;99.90;;;;;;5033826;28;20445;-37
2023/04/01 00:30:31;;;;;;;2.55;0.60;;;12.10;99.90;;;;;;5033856;28;20025;-39
2023/04/01 00:32:56;;;;;;;2.17;0.60;;;12.00;99.90;;;;;;5033728;28;20102;-38
2023/04/01 00:35:23;;;;;;;2.50;0.70;;;12.00;99.90;;;;;;5033641;28;20026;-36
2023/04/01 00:37:49;;;;;;;2.42;0.70;;;12.00;99.90;;;;;;5034161;28;20033;-38
2023/04/01 00:40:28;;;;;;;2.08;0.50;;;12.00;99.90;;;;;;5032592;28;20171;-40
2023/04/01 00:42:54;;;;;;;3.17;0.68;;;12.00;99.90;;;;;;5033008;28;20030;-36
2023/04/01 00:45:34;;;;;;;3.47;0.88;;;12.00;99.90;;;;;;5033748;28;20017;-38
2023/04/01 00:48:09;;;;;;;1.52;0.50;;;12.00;99.90;;;;;;5032134;28;20071;-39
2023/04/01 00:50:39;;;;;;;3.35;0.63;;;12.00;99.90;;;;;;5034373;28;20113;-37
2023/04/01 00:53:06;;;;;;;2.78;0.70;;;12.00;99.90;;;;;;5033373;28;20026;-39
2023/04/01 00:55:35;;;;;;;1.88;0.80;;;12.00;99.90;;;;;;5033337;28;20035;-39
2023/04/01 00:58:05;;;;;;;4.18;0.80;;;12.00;99.90;;;;;;5032641;28;20025;-40
2023/04/01 01:00:31;;;;;;;1.38;0.52;;;12.00;99.90;;;;;;5033807;28;20018;-39
2023/04/01 01:02:57;;;;;;;2.97;0.60;;;12.00;99.90;;;;;;5034348;28;20080;-37
2023/04/01 01:05:59;;;;;;;2.80;0.52;;;12.00;99.90;;;;;;5032925;28;20029;-40
2023/04/01 01:08:47;;;;;;;2.40;0.45;;;12.00;99.90;;;;;;5032682;28;20040;-36
2023/04/01 01:11:16;;;;;;;1.45;0.57;;;12.00;99.90;;;;;;5032702;28;20051;-39
2023/04/01 01:14:12;;;;;;;2.05;0.70;;;12.00;99.90;;;;;;5031860;28;20033;-39
2023/04/01 01:16:47;;;;;;;1.15;0.40;;;12.00;99.90;;;;;;5034072;28;20033;-40
2023/04/01 01:19:21;;;;;;;2.35;0.40;;;12.00;99.90;;;;;;5033754;28;20625;-37
2023/04/01 01:22:31;;;;;;;2.65;0.68;;;12.00;99.90;;;;;;5033208;28;20033;-40
2023/04/01 01:25:18;;;;;;;2.65;0.75;;;12.00;99.90;;;;;;5032462;28;20044;-37
2023/04/01 01:27:55;;;;;;;1.60;0.60;;;12.00;99.90;;;;;;5032148;28;20025;-39
2023/04/01 01:30:37;;;;;;;1.60;0.50;;;12.00;99.90;;;;;;5033188;28;20029;-40
2023/04/01 01:33:35;;;;;;;2.40;0.50;;;12.00;99.90;;;;;;5031832;28;20030;-39
2023/04/01 01:36:06;;;;;;;2.13;0.57;;;12.00;99.90;;;;;;5032422;28;20132;-37
2023/04/01 01:38:34;;;;;;;2.15;0.63;;;12.00;99.90;;;;;;5032935;28;20029;-37
2023/04/01 01:41:03;;;;;;;0.90;0.50;;;12.00;99.90;;;;;;5032565;28;20021;-36
2023/04/01 01:43:44;;;;;;;1.77;0.50;;;11.90;99.90;;;;;;5032276;28;20029;-36
2023/04/01 01:46:19;;;;;;;2.00;0.68;;;11.90;99.90;;;;;;5032728;28;20072;-36
2023/04/01 01:48:45;;;;;;;;;;;11.90;99.90;;;;;;5031804;28;20053;-39
2023/04/01 01:51:11;;;;;;;2.97;0.55;;;12.00;99.90;;;;;;5032145;28;19905;-37
2023/04/01 01:53:37;;;;;;;0.65;0.40;;;11.90;99.90;;;;;;5031291;28;20036;-40
2023/04/01 01:56:04;;;;;;;1.98;0.55;;;11.90;99.90;;;;;;5031272;28;20029;-37
2023/04/01 01:58:40;;;;;;;0.93;0.38;;;11.90;99.90;;;;;;5032532;28;20057;-36
2023/04/01 02:01:10;;;;;;;0.88;0.40;;;11.90;99.90;;;;;;5031546;28;20076;-38
2023/04/01 02:03:39;;;;;;;1.73;0.40;;;11.90;99.90;;;;;;5032450;28;20029;-39
2023/04/01 02:06:07;;;;;;;1.35;0.40;;;11.90;99.90;;;;;;5032208;28;20075;-37
2023/04/01 02:08:51;;;;;;;1.50;0.47;;;11.90;99.90;;;;;;5033450;28;20021;-36
2023/04/01 02:11:22;;;;;;;2.40;0.50;;;11.90;99.90;;;;;;5032558;28;20101;-36
2023/04/01 02:14:01;;;;;;;0.40;0.30;;;11.90;99.90;;;;;;5033124;28;20025;-38
2023/04/01 02:16:32;;;;;;;1.48;0.57;;;11.90;99.90;;;;;;5032703;28;20025;-38
2023/04/01 02:19:00;;;;;;;1.15;0.38;;;11.90;99.90;;;;;;5032008;28;20387;-36
2023/04/01 02:21:29;;;;;;;1.75;0.50;;;11.90;99.90;;;;;;5035751;28;20034;-37
2023/04/01 02:23:57;;;;;;;1.13;0.38;;;11.90;99.90;;;;;;5036359;28;20025;-37
2023/04/01 02:26:25;;;;;;;0.70;0.30;;;11.90;99.90;;;;;;5036027;28;20128;-36
2023/04/01 02:28:52;;;;;;;0.45;0.20;;;11.90;99.90;;;;;;5035832;28;20033;-38
2023/04/01 02:31:18;;;;;;;0.80;0.30;;;11.90;99.90;;;;;;5035835;28;20030;-39
2023/04/01 02:33:45;;;;;;;4.72;0.63;;;11.90;99.90;;;;;;5035795;28;20030;-36
2023/04/01 02:36:13;;;;;;;2.70;0.57;;;11.80;99.90;;;;;;5036157;28;20025;-39
2023/04/01 02:38:39;;;;;;;0.82;0.20;;;11.90;99.90;;;;;;5036081;28;20022;-36
2023/04/01 02:41:06;;;;;;;2.00;0.47;;;11.90;99.90;;;;;;5036099;28;20033;-36
2023/04/01 02:43:32;;;;;;;1.17;0.35;;;11.80;99.90;;;;;;5035300;28;20531;-39
2023/04/01 02:45:57;;;;;;;1.63;0.50;;;11.80;99.90;;;;;;5036239;28;20051;-37
2023/04/01 02:48:23;;;;;;;1.63;0.50;;;11.80;99.90;;;;;;5036437;28;20435;-39
2023/04/01 02:50:49;;;;;;;0.82;0.38;;;11.80;99.90;;;;;;5036255;28;20022;-39
2023/04/01 02:53:15;;;;;;;1.85;0.50;;;11.80;99.90;;;;;;5035548;28;20036;-39
2023/04/01 02:55:41;;;;;;;1.88;0.38;;;11.80;99.90;;;;;;5035759;28;20033;-38
2023/04/01 02:58:07;;;;;;;2.97;0.57;;;11.80;99.90;;;;;;5036091;28;20025;-40
2023/04/01 03:00:32;;;;;;;1.77;0.50;;;11.80;99.90;;;;;;5035436;28;20034;-38
2023/04/01 03:02:58;;;;;;;0.40;0.30;;;11.80;99.90;;;;;;5034927;28;20085;-38
2023/04/01 03:05:24;;;;;;;2.80;0.50;;;11.80;99.90;;;;;;5034768;28;20045;-37
2023/04/01 03:07:50;;;;;;;0.77;0.28;;;11.80;99.90;;;;;;5035348;28;20022;-37
2023/04/01 03:10:15;;;;;;;1.67;0.60;;;11.80;99.90;;;;;;5035689;28;20034;-40
2023/04/01 03:12:41;;;;;;;1.10;0.40;;;11.80;99.90;;;;;;5035164;28;20032;-37
2023/04/01 03:15:09;;;;;;;0.50;0.25;;;11.80;99.90;;;;;;5035102;28;20022;-40
2023/04/01 03:17:35;;;;;;;2.33;0.40;;;11.80;99.90;;;;;;5034976;28;20056;-38
2023/04/01 03:20:00;;;;;;;1.65;0.43;;;11.80;99.90;;;;;;5035056;28;20029;-39
2023/04/01 03:22:26;;;;;;;0.68;0.45;;;11.80;99.90;;;;;;5035072;28;20104;-39
2023/04/01 03:24:52;;;;;;;2.17;0.60;;;11.70;99.90;;;;;;5034839;28;20107;-39
2023/04/01 03:27:17;;;;;;;1.10;0.32;;;11.80;99.90;;;;;;5035179;28;20386;-40
2023/04/01 03:29:43;;;;;;;1.20;0.40;;;11.80;99.90;;;;;;5034174;28;20048;-37
2023/04/01 03:32:08;;;;;;;1.65;0.47;;;11.70;99.90;;;;;;5033673;28;20036;-38
2023/04/01 03:34:34;;;;;;;1.20;0.40;;;11.70;99.90;;;;;;5035496;28;20039;-41
2023/04/01 03:37:00;;;;;;;0.90;0.30;;;11.70;99.90;;;;;;5034622;28;20317;-38
2023/04/01 03:39:26;;;;;;;1.27;0.50;;;11.70;99.90;;;;;;5035793;28;20041;-37
2023/04/01 03:41:52;;;;;;;2.80;0.40;;;11.70;99.90;;;;;;5033707;28;20036;-39
2023/04/01 03:44:19;;;;;;;2.78;0.35;;;11.70;99.90;;;;;;5035169;28;20445;-36
2023/04/01 03:46:44;;;;;;;1.27;0.50;;;11.70;99.90;;;;;;5033983;28;20056;-41
2023/04/01 03:49:11;;;;;;;1.27;0.50;;;11.70;99.90;;;;;;5033804;28;20476;-37
2023/04/01 03:51:41;;;;;;;1.80;0.30;;;11.70;99.90;;;;;;5034236;28;20514;-39
2023/04/01 03:54:09;;;;;;;1.33;0.50;;;11.70;99.90;;;;;;5035138;28;20021;-37
2023/04/01 03:56:35;;;;;;;1.35;0.60;;;11.70;99.90;;;;;;5034543;28;20029;-36
2023/04/01 03:59:08;;;;;;;2.50;0.35;;;11.70;99.90;;;;;;5033492;28;20373;-39
2023/04/01 04:01:34;;;;;;;1.38;0.30;;;11.70;99.90;;;;;;5032898;28;20045;-37
2023/04/01 04:04:00;;;;;;;0.80;0.30;;;11.70;99.90;;;;;;5034487;28;20392;-39
2023/04/01 04:06:26;;;;;;;1.80;0.38;;;11.70;99.90;;;;;;5033494;28;20025;-38
2023/04/01 04:08:52;;;;;;;1.20;0.40;;;11.70;99.90;;;;;;5033562;28;20025;-37
2023/04/01 04:11:21;;;;;;;1.10;0.30;;;11.70;99.90;;;;;;5036247;28;20026;-38
2023/04/01 04:13:52;;;;;;;1.00;0.30;;;11.70;99.90;;;;;;5035706;28;20033;-39
2023/04/01 04:16:17;;;;;;;1.45;0.40;;;11.70;99.90;;;;;;5034671;28;20041;-38
2023/04/01 04:18:43;;;;;;;1.75;0.60;;;11.70;99.90;;;;;;5035068;28;20384;-38
2023/04/01 04:21:13;;;;;;;1.08;0.30;;;11.70;99.90;;;;;;5034130;28;20048;-36
2023/04/01 04:23:39;;;;;;;1.88;0.55;;;11.70;99.90;;;;;;5034465;28;20021;-37
2023/04/01 04:26:10;;;;;;;1.02;0.43;;;11.70;99.90;;;;;;5032235;28;20032;-38
2023/04/01 04:28:36;;;;;;;1.77;0.40;;;11.60;99.90;;;;;;5034085;28;20386;-38
2023/04/01 04:31:02;;;;;;;1.23;0.10;;;11.60;99.90;;;;;;5033432;28;20022;-37
2023/04/01 04:33:30;;;;;;;1.42;0.40;;;11.60;99.90;;;;;;5033414;28;20402;-37
2023/04/01 04:35:57;;;;;;;1.85;0.50;;;11.60;99.90;;;;;;5034111;28;20116;-37
2023/04/01 04:38:23;;;;;;;3.38;0.65;;;11.60;99.90;;;;;;5034765;28;20059;-38
2023/04/01 04:40:49;;;;;;;3.55;0.73;;;11.60;99.90;;;;;;5033672;28;20034;-39
2023/04/01 04:43:16;;;;;;;2.70;0.50;;;11.60;99.90;;;;;;5033569;28;20037;-36
2023/04/01 04:45:42;;;;;;;2.72;1.02;;;11.60;99.90;;;;;;5033752;28;20022;-39
2023/04/01 04:48:09;;;;;;;2.15;0.47;;;11.60;99.90;;;;;;5033322;28;20491;-38
2023/04/01 04:50:35;;;;;;;1.90;0.45;;;11.60;99.90;;;;;;5033181;28;20056;-39
2023/04/01 04:53:02;;;;;;;1.38;0.60;;;11.60;99.90;;;;;;5034305;28;20029;-36
2023/04/01 04:55:28;;;;;;;2.33;0.73;;;11.60;99.90;;;;;;5033983;28;20033;-39
2023/04/01 04:57:54;;;;;;;2.05;0.40;;;11.60;99.90;;;;;;5033211;28;20545;-39
2023/04/01 05:00:19;;;;;;;1.65;0.40;;;11.60;99.90;;;;;;5033982;28;20063;-41
2023/04/01 05:02:45;;;;;;;0.40;0.20;;;11.60;99.90;;;;;;5033441;28;20037;-38
2023/04/01 05:05:11;;;;;;;1.05;0.30;;;11.60;99.90;;;;;;5032326;28;20538;-36
2023/04/01 05:07:37;;;;;;;1.98;0.52;;;11.60;99.90;;;;;;5031510;28;20021;-37
2023/04/01 05:10:02;;;;;;;2.03;0.50;;;11.60;99.90;;;;;;5032438;28;20101;-36
2023/04/01 05:12:28;;;;;;;1.65;0.45;;;11.60;99.90;;;;;;5033109;28;20356;-36
2023/04/01 05:14:54;;;;;;;2.08;0.60;;;11.60;99.90;;;;;;5033210;28;20472;-39
2023/04/01 05:17:19;;;;;;;1.63;0.43;;;11.60;99.90;;;;;;5032543;28;20025;-38
2023/04/01 05:19:45;;;;;;;2.03;0.60;;;11.60;99.90;;;;;;5032732;28;20495;-40
2023/04/01 05:22:10;;;;;;;1.17;0.47;;;11.60;99.90;;;;;;5032442;28;20025;-37
2023/04/01 05:24:36;;;;;;;0.65;0.30;;;11.60;99.90;;;;;;5032371;28;20034;-38
2023/04/01 05:27:02;;;;;;;2.55;0.77;;;11.60;99.90;;;;;;5031403;28;20047;-38
2023/04/01 05:29:27;;;;;;;0.77;0.38;;;11.60;99.90;;;;;;5032563;28;20029;-36
2023/04/01 05:31:54;;;;;;;3.20;0.47;;;11.60;99.90;;;;;;5033135;28;20028;-40
2023/04/01 05:34:19;;;;;;;0.93;0.40;;;11.60;99.90;;;;;;5032635;28;20491;-40
2023/04/01 05:36:45;;;;;;;1.20;0.60;;;11.60;99.90;;;;;;5032524;28;20065;-37
2023/04/01 05:39:11;;;;;;;1.15;0.47;;;11.60;99.90;;;;;;5033614;28;20025;-36
2023/04/01 05:41:38;;;;;;;1.27;0.40;;;11.60;99.90;;;;;;5032986;28;20026;-37
2023/04/01 05:44:04;;;;;;;2.35;0.60;;;11.60;99.90;;;;;;5032713;28;20480;-37
2023/04/01 05:46:31;;;;;;;3.00;0.70;;;11.60;99.90;;;;;;5032572;28;20396;-37
2023/04/01 05:48:57;;;;;;;3.35;0.80;;;11.50;99.90;;;;;;5032174;28;20024;-38
2023/04/01 05:51:22;;;;;;;1.27;0.40;;;11.40;99.90;;;;;;5031474;28;20030;-37
2023/04/01 05:53:48;;;;;;;2.40;0.60;;;11.30;99.90;;;;;;5031700;28;20048;-40
2023/04/01 05:56:14;;;;;;;3.28;0.55;;;11.20;99.90;;;;;;5030550;28;20434;-35
2023/04/01 05:58:40;;;;;;;3.08;0.70;;;11.20;99.90;;;;;;5031297;28;20053;-35
2023/04/01 06:01:09;;;;;;;1.92;0.50;;;11.20;99.90;;;;;;5032849;28;20045;-36
2023/04/01 06:03:35;;;;;;;3.38;0.40;;;11.10;99.90;;;;;;5030979;28;20029;-36
2023/04/01 06:06:01;;;;;;;4.07;0.57;;;11.10;99.90;;;;;;5030635;28;20105;-36
2023/04/01 06:08:27;;;;;;;2.65;0.52;;;11.10;99.90;;;;;;5030976;28;20392;-40
2023/04/01 06:11:15;;;;;;;3.28;0.60;;;11.20;99.90;;;;;;5031161;28;20056;-38
2023/04/01 06:13:46;;;;;;;2.10;0.63;;;11.20;99.90;;;;;;5031178;28;20032;-38
2023/04/01 06:16:21;;;;;;;2.45;0.65;;;11.20;99.90;;;;;;5030545;28;20108;-37
2023/04/01 06:19:06;;;;;;;2.63;0.63;;;11.20;99.90;;;;;;5031101;28;20511;-38
2023/04/01 06:22:06;;;;;;;3.33;0.65;;;11.20;99.90;;;;;;5031243;28;20030;-36
2023/04/01 06:24:44;;;;;;;2.85;0.70;;;11.20;99.90;;;;;;5031177;28;20406;-37
2023/04/01 06:27:31;;;;;;;1.13;0.45;;;11.20;99.90;;;;;;5030899;28;20017;-37
2023/04/01 06:30:10;;;;;;;2.10;0.68;;;11.20;99.90;;;;;;5031930;28;20434;-40
2023/04/01 06:33:11;;;;;;;2.55;0.50;;;11.20;99.90;;;;;;5031734;28;20029;-37
2023/04/01 06:35:46;;;;;;;2.33;0.60;;;11.20;99.90;;;;;;5032315;28;20543;-36
2023/04/01 06:38:26;;;;;;;2.70;0.55;;;11.20;99.90;;;;;;5032067;28;20506;-39
2023/04/01 06:40:57;;;;;;;2.05;0.50;;;11.20;99.90;;;;;;5031869;28;20064;-36
2023/04/01 06:43:41;;;;;;;2.00;0.60;;;11.20;99.90;;;;;;5029509;28;20025;-36
2023/04/01 06:46:44;;;;;;;2.38;0.70;;;11.20;99.90;;;;;;5032800;28;20429;-37
2023/04/01 06:49:15;;;;;;;1.70;0.40;;;11.30;99.90;;;;;;5030777;28;20492;-39
2023/04/01 06:51:59;;;;;;;3.80;0.80;;;11.30;99.90;;;;;;5032407;28;20092;-38
2023/04/01 06:54:42;;;;;;;2.92;0.68;;;11.30;99.90;;;;;;5031029;28;20041;-36
2023/04/01 06:57:42;;;;;;;2.22;0.65;;;11.30;99.90;;;;;;5030185;28;20033;-39
2023/04/01 07:00:32;;;;;;;1.08;0.40;;;11.30;99.90;;;;;;5030969;28;20438;-36
2023/04/01 07:03:18;;;;;;;1.88;0.57;;;11.30;99.90;;;;;;5031237;28;20041;-38
2023/04/01 07:05:44;;;;;;;1.70;0.50;;;11.30;99.90;;;;;;5032541;28;20104;-41
2023/04/01 07:08:15;;;;;;;2.95;0.55;;;11.30;99.90;;;;;;5035802;28;20077;-38
2023/04/01 07:11:01;;;;;;;1.50;0.60;;;11.30;99.90;;;;;;5034470;28;20511;-39
2023/04/01 07:13:40;;;;;;;1.42;0.50;;;11.30;99.90;;;;;;5034871;28;20033;-38
2023/04/01 07:16:18;;;;;;;1.75;0.50;;;11.30;99.90;;;;;;5034552;28;20036;-40
2023/04/01 07:19:04;;;;;;;1.30;0.50;;;11.30;99.90;;;;;;5033830;28;20039;-38
2023/04/01 07:21:47;;;;;;;2.20;0.40;;;11.30;99.90;;;;;;5035115;28;20384;-38
2023/04/01 07:24:21;;;;;;;0.90;0.40;;;11.30;99.90;;;;;;5033792;28;20025;-38
2023/04/01 07:26:47;;;;;;;;;;;11.30;99.90;;;;;;5033878;28;20022;-38
2023/04/01 07:29:15;;;;;;;1.35;0.60;;;11.30;99.90;;;;;;5033902;28;19912;-37
2023/04/01 07:31:49;;;;;;;1.70;0.50;;;11.40;99.90;;;;;;5033872;28;20025;-37
2023/04/01 07:34:37;;;;;;;2.45;0.60;;;11.30;99.90;;;;;;5033792;28;20035;-38
2023/04/01 07:37:26;;;;;;;2.72;0.60;;;11.30;99.90;;;;;;5033222;28;20033;-38
2023/04/01 07:40:10;;;;;;;1.90;0.70;;;11.30;99.90;;;;;;5033393;28;20111;-38
2023/04/01 07:42:57;;;;;;;1.02;0.57;;;11.30;99.90;;;;;;5033594;28;20029;-38
2023/04/01 07:45:28;;;;;;;0.95;0.40;;;11.40;99.90;;;;;;5033517;28;20026;-38
2023/04/01 07:48:00;;;;;;;1.23;0.65;;;11.40;99.90;;;;;;5033211;28;20097;-39
2023/04/01 07:50:29;;;;;;;1.83;0.70;;;11.40;99.90;;;;;;5033824;28;20147;-37
2023/04/01 07:53:24;;;;;;;0.75;0.40;;;11.40;99.90;;;;;;5033470;28;20033;-37
2023/04/01 07:55:56;;;;;;;1.15;0.55;;;11.40;99.90;;;;;;5027166;28;20044;-38
2023/04/01 07:58:40;;;;;;;1.77;0.55;;;11.40;99.90;;;;;;5033285;28;20021;-37
2023/04/01 08:01:28;;;;;;;2.67;0.60;;;11.40;99.90;;;;;;5033336;28;20507;-36
2023/04/01 08:04:17;;;;;;;2.08;0.50;;;11.40;99.90;;;;;;5033130;28;20033;-36
2023/04/01 08:07:10;;;;;;;1.95;0.43;;;11.40;99.90;;;;;;5032735;28;20025;-36
2023/04/01 08:10:04;;;;;;;0.85;0.30;;;11.40;99.90;;;;;;5029838;28;20041;-36
2023/04/01 08:12:45;;;;;;;1.08;0.40;;;11.40;99.90;;;;;;5033052;28;20486;-38
2023/04/01 08:15:55;;;;;;;1.90;0.50;;;11.40;99.90;;;;;;5033047;28;20537;-36
2023/04/01 08:18:51;;;;;;;2.05;0.70;;;11.40;99.90;;;;;;5015154;28;20034;-36
2023/04/01 08:21:23;;;;;;;0.98;0.40;;;11.40;99.90;;;;;;5034340;28;20028;-39
2023/04/01 08:23:52;;;;;;;2.15;0.40;;;11.40;99.90;;;;;;5034034;28;20083;-36
2023/04/01 08:26:36;;;;;;;1.23;0.52;;;11.40;99.90;;;;;;5033682;28;20109;-38
2023/04/01 08:29:08;;;;;;;1.40;0.50;;;11.40;99.90;;;;;;5034393;28;20017;-38
2023/04/01 08:31:48;;;;;;;1.13;0.40;;;11.40;99.90;;;;;;5034225;28;20025;-38
2023/04/01 08:34:26;;;;;;;1.00;0.50;;;11.40;99.90;;;;;;5034173;28;20025;-36
2023/04/01 08:37:10;;;;;;;2.80;0.70;;;11.40;99.90;;;;;;5032972;28;20499;-38
2023/04/01 08:39:48;;;;;;;1.52;0.40;;;11.40;99.90;;;;;;5033866;28;20025;-38
2023/04/01 08:42:58;;;;;;;1.20;0.32;;;11.40;99.90;;;;;;5033853;28;20033;-39
2023/04/01 08:45:46;;;;;;;1.35;0.50;;;11.40;99.90;;;;;;5033325;28;20032;-38
2023/04/01 08:48:41;;;;;;;1.45;0.50;;;11.40;99.90;;;;;;5033675;28;20025;-37
2023/04/01 08:51:18;;;;;;;;;;;11.40;99.90;;;;;;5033922;28;20030;-36
2023/04/01 08:54:02;;;;;;;1.25;0.50;;;11.50;99.90;;;;;;5034777;28;20398;-37
2023/04/01 08:56:30;;;;;;;2.05;0.50;;;11.50;99.90;;;;;;5033074;28;20181;-37
2023/04/01 08:59:31;;;;;;;1.40;0.50;;;11.50;99.90;;;;;;5034345;28;20033;-36
2023/04/01 09:02:28;;;;;;;2.15;0.63;;;11.40;99.90;;;;;;5025150;28;20094;-40
2023/04/01 09:05:28;;;;;;;1.13;0.43;;;11.50;99.90;;;;;;5032443;28;20124;-41
2023/04/01 09:08:05;;;;;;;1.48;0.50;;;11.40;99.90;;;;;;5033554;28;20060;-37
2023/04/01 09:10:56;;;;;;;2.15;0.68;;;11.40;99.90;;;;;;5033152;28;20535;-36
2023/04/01 09:13:55;;;;;;;1.42;0.50;;;11.40;99.90;;;;;;5033011;28;20032;-39
2023/04/01 09:16:57;;;;;;;2.20;0.60;;;11.50;99.90;;;;;;5031460;28;20037;-37
2023/04/01 09:19:44;;;;;;;0.68;0.32;;;11.50;99.90;;;;;;5032041;28;20061;-36
2023/04/01 09:22:40;;;;;;;1.40;0.50;;;11.50;99.90;;;;;;5032919;28;20368;-36
2023/04/01 09:25:48;;;;;;;1.02;0.60;;;11.50;99.90;;;;;;5032025;28;20513;-38
2023/04/01 09:28:33;;;;;;;1.50;0.50;;;11.50;99.90;;;;;;5030821;28;20108;-36
2023/04/01 09:31:07;;;;;;;1.10;0.50;;;11.50;99.90;;;;;;5031568;28;20053;-38
2023/04/01 09:33:52;;;;;;;1.48;0.50;;;11.50;99.90;;;;;;5032066;28;20037;-38
2023/04/01 09:36:21;;;;;;;0.68;0.35;;;11.60;99.90;;;;;;5031211;28;20063;-38
2023/04/01 09:39:26;;;;;;;0.93;0.47;;;11.60;99.90;;;;;;5031562;28;20041;-38
2023/04/01 09:42:00;;;;;;;0.90;0.30;;;11.50;99.90;;;;;;5024287;28;20064;-37
2023/04/01 09:44:33;;;;;;;;;;;11.60;99.90;;;;;;5031955;28;20104;-39
2023/04/01 09:47:46;;;;;;;0.63;0.38;;;11.60;99.90;;;;;;5031327;28;19905;-36
2023/04/01 09:50:40;;;;;;;1.10;0.50;;;11.60;99.90;;;;;;5033453;28;20021;-39
2023/04/01 09:53:12;;;;;;;0.77;0.40;;;11.60;99.90;;;;;;5031308;28;20503;-38
2023/04/01 09:56:07;;;;;;;1.38;0.60;;;11.60;99.90;;;;;;5031204;28;20264;-36
2023/04/01 09:58:59;;;;;;;2.35;0.50;;;11.60;99.90;;;;;;5032320;28;20067;-36
2023/04/01 10:01:34;;;;;;;1.65;0.60;;;11.60;99.90;;;;;;5031876;28;20049;-38
2023/04/01 10:04:23;;;;;;;2.55;0.80;;;11.60;99.90;;;;;;5031983;28;20021;-38
2023/04/01 10:07:05;;;;;;;2.67;0.90;;;11.60;99.90;;;;;;5033123;28;20060;-39
2023/04/01 10:09:52;;;;;;;0.75;0.40;;;11.60;99.90;;;;;;5032947;28;20384;-36
2023/04/01 10:12:24;;;;;;;1.20;0.50;;;11.60;99.90;;;;;;5032303;28;20025;-36
2023/04/01 10:15:19;;;;;;;1.13;0.40;;;11.60;99.90;;;;;;5031101;28;20025;-36
2023/04/01 10:17:45;;;;;;;0.90;0.35;;;11.60;99.90;;;;;;5033416;28;20037;-36
2023/04/01 10:20:48;;;;;;;1.17;0.50;;;11.60;99.90;;;;;;5032328;28;20025;-37
2023/04/01 10:23:39;;;;;;;0.85;0.40;;;11.60;99.90;;;;;;5030984;28;20112;-36
2023/04/01 10:26:44;;;;;;;0.68;0.40;;;11.60;99.90;;;;;;5031604;28;20429;-38
2023/04/01 10:29:28;;;;;;;2.03;0.47;;;11.70;99.90;;;;;;5030241;28;20088;-37
2023/04/01 10:32:24;;;;;;;0.77;0.40;;;11.70;99.90;;;;;;5032562;28;20033;-36
2023/04/01 10:35:01;;;;;;;0.60;0.40;;;11.70;99.90;;;;;;5030953;28;20033;-36
2023/04/01 10:37:50;;;;;;;1.23;0.40;;;11.60;99.90;;;;;;5030982;28;20033;-36
2023/04/01 10:40:57;;;;;;;0.40;0.30;;;11.70;99.90;;;;;;5032163;28;20029;-36
2023/04/01 10:43:47;;;;;;;0.43;0.25;;;11.70;99.90;;;;;;5012471;28;20033;-38
2023/04/01 10:46:48;;;;;;;0.63;0.40;;;11.70;99.90;;;;;;5035013;28;20048;-38
2023/04/01 10:49:40;;;;;;;0.93;0.20;;;11.70;99.90;;;;;;5036097;28;20026;-36
2023/04/01 10:52:41;;;;;;;2.00;0.52;;;11.80;99.90;;;;;;5035730;28;20472;-37
2023/04/01 10:55:31;;;;;;;0.38;0.30;;;11.70;99.90;;;;;;5035169;28;20033;-39
2023/04/01 10:58:35;;;;;;;0.50;0.28;;;11.70;99.90;;;;;;5035271;28;20029;-38
2023/04/01 11:01:07;;;;;;;1.63;0.40;;;11.70;99.90;;;;;;5036078;28;20040;-41
2023/04/01 11:03:57;;;;;;;0.95;0.22;;;11.70;99.90;;;;;;5034928;28;20104;-36
2023/04/01 11:06:48;;;;;;;0.55;0.30;;;11.70;99.90;;;;;;5035088;28;20026;-36
2023/04/01 11:09:23;;;;;;;0.63;0.20;;;11.70;99.90;;;;;;5035978;28;20028;-35
2023/04/01 11:12:10;;;;;;;2.67;0.30;;;11.70;99.90;;;;;;5034572;28;20021;-38
2023/04/01 11:14:47;;;;;;;0.50;0.30;;;11.80;99.90;;;;;;5034171;28;20569;-39
2023/04/01 11:17:35;;;;;;;1.50;0.40;;;11.70;99.90;;;;;;5033627;28;20064;-36
2023/04/01 11:20:03;;;;;;;0.73;0.30;;;11.80;99.90;;;;;;5033311;28;20064;-39
2023/04/01 11:23:02;;;;;;;0.20;0.20;;;11.80;99.90;;;;;;5035061;28;20053;-38
2023/04/01 11:25:46;;;;;;;1.00;0.40;;;11.80;99.90;;;;;;5034853;28;20025;-38
2023/04/01 11:28:27;;;;;;;0.77;0.40;;;11.80;99.90;;;;;;5034288;28;20025;-36
2023/04/01 11:31:02;;;;;;;0.52;0.35;;;11.80;99.90;;;;;;5034546;28;20021;-39
2023/04/01 11:33:50;;;;;;;0.60;0.30;;;11.80;99.90;;;;;;5034567;28;20086;-37
2023/04/01 11:36:48;;;;;;;0.70;0.30;;;11.80;99.90;;;;;;5035307;28;20052;-37
2023/04/01 11:39:28;;;;;;;0.77;0.30;;;11.80;99.90;;;;;;5034922;28;20025;-37
2023/04/01 11:42:25;;;;;;;0.60;0.30;;;11.80;99.90;;;;;;5035413;28;20022;-36
2023/04/01 11:45:20;;;;;;;0.45;0.30;;;11.80;99.90;;;;;;5034656;28;20051;-38
2023/04/01 11:47:56;;;;;;;3.03;0.20;;;11.80;99.90;;;;;;5034281;28;20035;-39
2023/04/01 11:50:51;;;;;;;0.60;0.30;;;11.80;99.90;;;;;;5034329;28;20148;-39
2023/04/01 11:53:29;;;;;;;0.45;0.30;;;11.80;99.90;;;;;;5032592;28;20021;-36
2023/04/01 11:56:26;;;;;;;0.77;0.40;;;11.80;99.90;;;;;;5034399;28;20025;-37
2023/04/01 11:59:25;;;;;;;0.88;0.30;;;11.80;99.90;;;;;;5035085;28;20061;-39
2023/04/01 12:01:56;;;;;;;0.40;0.22;;;11.80;99.90;;;;;;5033554;28;20033;-38
2023/04/01 12:04:55;;;;;;;0.35;0.20;;;11.80;99.90;;;;;;5033096;28;20091;-40
2023/04/01 12:07:42;;;;;;;0.43;0.30;;;11.80;99.90;;;;;;5033469;28;20048;-38
2023/04/01 12:10:45;;;;;;;0.45;0.25;;;11.80;99.90;;;;;;5033515;28;20030;-43
2023/04/01 12:13:36;;;;;;;0.70;0.20;;;11.80;99.90;;;;;;5034668;28;20448;-37
2023/04/01 12:16:05;;;;;;;0.52;0.30;;;11.90;99.90;;;;;;5033861;28;20029;-35
2023/04/01 12:18:46;;;;;;;0.77;0.32;;;11.80;99.90;;;;;;5033965;28;20056;-38
2023/04/01 12:21:23;;;;;;;0.45;0.30;;;11.80;99.90;;;;;;5033546;28;20047;-36
2023/04/01 12:24:29;;;;;;;0.32;0.20;;;11.90;99.90;;;;;;5033240;28;20056;-36
2023/04/01 12:27:15;;;;;;;0.73;0.38;;;11.90;99.90;;;;;;5032463;28;20040;-36
2023/04/01 12:30:15;;;;;;;0.43;0.30;;;11.90;99.90;;;;;;5032889;28;20128;-38
2023/04/01 12:33:11;;;;;;;0.25;0.20;;;11.90;99.90;;;;;;5033036;28;20021;-36
2023/04/01 12:36:15;;;;;;;0.30;0.20;;;11.90;99.90;;;;;;5033063;28;20485;-36
2023/04/01 12:38:55;;;;;;;0.60;0.30;;;11.90;99.90;;;;;;5021806;28;20462;-38
2023/04/01 12:41:56;;;;;;;0.50;0.22;;;11.90;99.90;;;;;;5034063;28;20447;-39
2023/04/01 12:44:35;;;;;;;2.05;0.50;;;11.80;99.90;;;;;;5033133;28;20495;-35
2023/04/01 12:47:07;;;;;;;0.30;0.28;;;11.90;99.90;;;;;;5033289;28;20028;-38
2023/04/01 12:50:07;;;;;;;0.52;0.30;;;11.90;99.90;;;;;;5032404;28;20105;-41
2023/04/01 12:53:04;;;;;;;1.15;0.20;;;11.80;99.90;;;;;;5032911;28;20104;-36
2023/04/01 12:55:40;;;;;;;0.38;0.20;;;11.90;99.90;;;;;;5032298;28;20036;-39
2023/04/01 12:58:30;;;;;;;0.80;0.30;;;11.90;99.90;;;;;;5033479;28;20487;-37
2023/04/01 13:01:04;;;;;;;0.50;0.32;;;11.90;99.90;;;;;;5033010;28;20215;-36
2023/04/01 13:03:32;;;;;;;0.22;0.20;;;11.90;99.90;;;;;;5031852;28;20164;-38
2023/04/01 13:06:07;;;;;;;1.13;0.30;;;11.90;99.90;;;;;;5032070;28;20021;-36
2023/04/01 13:09:01;;;;;;;0.63;0.20;;;11.90;99.90;;;;;;5032421;28;20476;-38
2023/04/01 13:11:47;;;;;;;0.30;0.20;;;11.90;99.90;;;;;;5032036;28;20022;-40
2023/04/01 13:14:39;;;;;;;0.47;0.22;;;11.90;99.90;;;;;;5031954;28;20079;-36
2023/04/01 13:17:31;;;;;;;0.60;0.22;;;11.90;99.90;;;;;;5032023;28;20083;-35
2023/04/01 13:20:03;;;;;;;0.57;0.20;;;11.90;99.90;;;;;;5032042;28;20025;-38
2023/04/01 13:22:41;;;;;;;0.22;0.20;;;11.90;99.90;;;;;;5032310;28;20029;-38
2023/04/01 13:25:39;;;;;;;0.85;0.28;;;12.00;99.90;;;;;;5032919;28;20029;-41
2023/04/01 13:28:22;;;;;;;0.55;0.22;;;12.00;99.90;;;;;;5032720;28;20021;-36
2023/04/01 13:30:56;;;;;;;0.63;0.40;;;12.00;99.90;;;;;;5032627;28;20022;-36
2023/04/01 13:33:47;;;;;;;0.32;0.20;;;11.90;99.90;;;;;;5032242;28;20400;-36
2023/04/01 13:36:51;;;;;;;0.20;0.20;;;11.90;99.90;;;;;;5032373;28;20720;-35
2023/04/01 13:39:22;;;;;;;0.52;0.20;;;11.90;99.90;;;;;;5010099;28;20145;-36
2023/04/01 13:41:55;;;;;;;0.35;0.10;;;11.90;99.90;;;;;;5030649;28;20033;-36